createdAt,value
2018-05-23T00:01:26.718Z,11.23
2018-05-23T00:03:54.443Z,12.73
2018-05-23T00:06:21.944Z,13.00
2018-05-23T00:08:49.504Z,11.40
2018-05-23T00:11:16.938Z,10.53
2018-05-23T00:13:44.427Z,12.30
2018-05-23T00:16:11.862Z,13.17
2018-05-23T00:18:39.314Z,11.03
2018-05-23T00:21:06.760Z,12.53
2018-05-23T00:23:34.986Z,11.63
2018-05-23T00:26:02.461Z,11.33
2018-05-23T00:28:29.905Z,11.30
2018-05-23T00:30:57.378Z,12.50
2018-05-23T00:33:24.842Z,12.63
2018-05-23T00:35:52.280Z,9.13
2018-05-23T00:38:19.727Z,11.37
2018-05-23T00:40:47.218Z,10.33
2018-05-23T00:43:14.674Z,11.77
2018-05-23T00:45:42.126Z,12.93
2018-05-23T00:48:09.594Z,11.07
2018-05-23T00:50:37.026Z,9.60
2018-05-23T00:53:04.473Z,10.33
2018-05-23T00:55:34.546Z,8.70
2018-05-23T00:58:01.991Z,10.10
2018-05-23T01:00:29.469Z,9.50
2018-05-23T01:02:56.930Z,11.77
2018-05-23T01:05:24.395Z,10.70
2018-05-23T01:07:51.858Z,9.33
2018-05-23T01:10:19.302Z,9.97
2018-05-23T01:12:46.748Z,10.43
2018-05-23T01:15:14.233Z,10.80
2018-05-23T01:17:41.671Z,9.53
2018-05-23T01:20:09.122Z,32.63
2018-05-23T01:22:36.562Z,10.43
2018-05-23T01:25:04.876Z,9.73
2018-05-23T01:27:32.372Z,10.87
2018-05-23T01:29:59.818Z,10.00
2018-05-23T01:32:27.285Z,10.10
2018-05-23T01:34:54.726Z,9.53
2018-05-23T01:37:22.164Z,12.67
2018-05-23T01:39:50.386Z,10.63
2018-05-23T01:42:17.823Z,10.27
2018-05-23T01:44:45.489Z,8.57
2018-05-23T01:47:12.910Z,9.83
2018-05-23T01:49:40.434Z,10.10
2018-05-23T01:52:07.905Z,9.87
2018-05-23T01:54:35.358Z,9.77
2018-05-23T01:57:02.794Z,12.23
2018-05-23T01:59:30.251Z,10.00
2018-05-23T02:01:57.750Z,9.90
2018-05-23T02:04:25.198Z,9.93
2018-05-23T02:06:52.666Z,10.80
2018-05-23T02:09:20.122Z,11.73
2018-05-23T02:11:47.602Z,10.27
2018-05-23T02:14:15.048Z,13.93
2018-05-23T02:16:42.483Z,9.40
2018-05-23T02:19:09.922Z,9.40
2018-05-23T02:21:38.151Z,10.10
2018-05-23T02:24:05.611Z,9.90
2018-05-23T02:26:33.046Z,10.40
2018-05-23T02:29:00.542Z,10.83
2018-05-23T02:31:27.970Z,10.03
2018-05-23T02:33:55.475Z,10.90
2018-05-23T02:36:23.023Z,10.10
2018-05-23T02:38:50.483Z,13.23
2018-05-23T02:41:17.942Z,9.83
2018-05-23T02:43:45.388Z,12.23
2018-05-23T02:46:18.454Z,10.77
2018-05-23T02:48:45.959Z,10.60
2018-05-23T02:51:13.427Z,10.97
2018-05-23T02:53:40.880Z,10.20
2018-05-23T02:56:08.322Z,12.93
2018-05-23T02:58:35.794Z,13.10
2018-05-23T03:01:03.297Z,10.37
2018-05-23T03:03:30.726Z,12.57
2018-05-23T03:05:58.174Z,11.17
2018-05-23T03:08:25.625Z,19.40
2018-05-23T03:10:53.133Z,9.93
2018-05-23T03:13:20.575Z,9.87
2018-05-23T03:15:48.023Z,12.90
2018-05-23T03:18:15.466Z,10.60
2018-05-23T03:20:42.907Z,11.53
2018-05-23T03:23:11.110Z,10.30
2018-05-23T03:25:38.594Z,11.50
2018-05-23T03:28:06.068Z,11.20
2018-05-23T03:30:33.527Z,10.87
2018-05-23T03:33:00.993Z,10.53
2018-05-23T03:35:28.429Z,11.13
2018-05-23T03:37:55.879Z,10.30
2018-05-23T03:40:23.366Z,11.13
2018-05-23T03:42:50.826Z,11.73
2018-05-23T03:45:18.469Z,12.10
2018-05-23T03:47:45.959Z,13.23
2018-05-23T03:50:13.414Z,11.83
2018-05-23T03:52:40.858Z,12.07
2018-05-23T03:55:08.311Z,12.97
2018-05-23T03:57:35.750Z,12.13
2018-05-23T04:00:15.875Z,14.67
2018-05-23T04:02:55.178Z,12.80
2018-05-23T04:05:35.290Z,15.53
2018-05-23T04:08:02.731Z,13.53
2018-05-23T04:10:30.262Z,13.33
2018-05-23T04:12:57.698Z,12.70
2018-05-23T04:15:25.229Z,12.80
2018-05-23T04:17:52.653Z,12.70
2018-05-23T04:20:20.102Z,13.03
2018-05-23T04:22:47.562Z,14.27
2018-05-23T04:25:15.026Z,12.67
2018-05-23T04:27:42.466Z,11.33
2018-05-23T04:30:09.950Z,13.53
2018-05-23T04:32:37.390Z,13.10
2018-05-23T04:35:04.870Z,14.97
2018-05-23T04:37:32.327Z,15.83
2018-05-23T04:39:59.795Z,14.20
2018-05-23T04:42:27.234Z,11.70
2018-05-23T04:44:54.691Z,13.70
2018-05-23T04:47:22.142Z,14.60
2018-05-23T04:49:49.615Z,17.47
2018-05-23T04:52:17.058Z,11.70
2018-05-23T04:54:44.498Z,13.90
2018-05-23T04:57:11.951Z,14.27
2018-05-23T04:59:39.390Z,19.00
2018-05-23T05:02:06.846Z,14.53
2018-05-23T05:04:34.283Z,13.47
2018-05-23T05:07:01.767Z,13.97
2018-05-23T05:09:29.202Z,15.80
2018-05-23T05:11:56.694Z,16.37
2018-05-23T05:14:24.137Z,14.80
2018-05-23T05:16:51.582Z,17.00
2018-05-23T05:19:19.094Z,17.50
2018-05-23T05:21:48.055Z,15.47
2018-05-23T05:24:15.494Z,17.10
2018-05-23T05:26:42.946Z,27.40
2018-05-23T05:29:11.175Z,18.13
2018-05-23T05:31:38.632Z,18.80
2018-05-23T05:34:06.105Z,18.30
2018-05-23T05:36:33.659Z,19.70
2018-05-23T05:39:01.094Z,19.50
2018-05-23T05:41:28.562Z,18.33
2018-05-23T05:43:56.002Z,20.57
2018-05-23T05:46:23.507Z,19.83
2018-05-23T05:48:50.950Z,21.33
2018-05-23T05:51:18.399Z,20.80
2018-05-23T05:53:45.847Z,20.87
2018-05-23T05:56:14.050Z,21.50
2018-05-23T05:58:41.494Z,24.60
2018-05-23T06:01:08.937Z,22.63
2018-05-23T06:03:37.141Z,20.07
2018-05-23T06:06:04.598Z,21.47
2018-05-23T06:08:32.030Z,18.60
2018-05-23T06:11:00.279Z,20.47
2018-05-23T06:13:27.727Z,23.10
2018-05-23T06:15:55.178Z,20.87
2018-05-23T06:18:22.626Z,20.23
2018-05-23T06:20:50.062Z,19.73
2018-05-23T06:23:18.327Z,19.93
2018-05-23T06:25:45.797Z,20.07
2018-05-23T06:28:13.234Z,23.80
2018-05-23T06:30:40.679Z,24.10
2018-05-23T06:33:08.216Z,22.70
2018-05-23T06:35:35.641Z,22.70
2018-05-23T06:38:03.876Z,20.20
2018-05-23T06:40:31.321Z,22.00
2018-05-23T06:42:58.766Z,21.37
2018-05-23T06:45:26.282Z,23.70
2018-05-23T06:47:53.826Z,22.37
2018-05-23T06:50:21.287Z,19.73
2018-05-23T06:52:48.738Z,22.27
2018-05-23T06:55:16.181Z,20.20
2018-05-23T06:57:43.628Z,18.67
2018-05-23T07:00:11.840Z,22.80
2018-05-23T07:02:39.286Z,22.50
2018-05-23T07:05:06.726Z,22.13
2018-05-23T07:07:34.179Z,21.50
2018-05-23T07:10:02.419Z,22.10
2018-05-23T07:12:29.877Z,22.63
2018-05-23T07:14:57.319Z,17.63
2018-05-23T07:17:24.762Z,20.53
2018-05-23T07:19:52.262Z,23.43
2018-05-23T07:22:19.714Z,22.13
2018-05-23T07:24:47.162Z,21.13
2018-05-23T07:27:14.618Z,21.80
2018-05-23T07:29:42.114Z,24.93
2018-05-23T07:32:09.567Z,21.00
2018-05-23T07:34:37.006Z,22.43
2018-05-23T07:37:04.466Z,26.00
2018-05-23T07:39:31.914Z,25.47
2018-05-23T07:41:59.373Z,20.30
2018-05-23T07:44:26.820Z,19.33
2018-05-23T07:46:55.057Z,18.60
2018-05-23T07:49:22.506Z,21.13
2018-05-23T07:51:49.970Z,11.53
2018-05-23T07:54:17.442Z,7.90
2018-05-23T07:56:44.903Z,13.40
2018-05-23T07:59:12.339Z,11.70
2018-05-23T08:01:39.774Z,14.87
2018-05-23T08:04:07.278Z,11.00
2018-05-23T08:06:34.721Z,12.83
2018-05-23T08:09:02.170Z,12.93
2018-05-23T08:11:29.614Z,11.13
2018-05-23T08:13:57.850Z,10.93
2018-05-23T08:16:25.290Z,12.40
2018-05-23T08:18:52.762Z,11.53
2018-05-23T08:21:20.235Z,11.77
2018-05-23T08:23:47.695Z,10.30
2018-05-23T08:26:15.150Z,10.50
2018-05-23T08:28:42.598Z,9.77
2018-05-23T08:31:10.072Z,13.67
2018-05-23T08:33:37.522Z,9.00
2018-05-23T08:36:04.998Z,10.93
2018-05-23T08:38:32.407Z,10.43
2018-05-23T08:41:00.614Z,11.87
2018-05-23T08:43:28.114Z,11.70
2018-05-23T08:45:55.684Z,12.97
2018-05-23T08:48:23.046Z,10.93
2018-05-23T08:50:50.483Z,14.20
2018-05-23T08:53:17.938Z,15.50
2018-05-23T08:55:45.402Z,17.60
2018-05-23T08:58:12.850Z,12.00
2018-05-23T09:00:40.286Z,11.90
2018-05-23T09:03:07.799Z,11.00
2018-05-23T09:05:35.251Z,12.33
2018-05-23T09:08:02.711Z,10.40
2018-05-23T09:10:30.177Z,12.47
2018-05-23T09:12:57.638Z,10.40
2018-05-23T09:15:25.089Z,9.60
2018-05-23T09:17:52.539Z,10.50
2018-05-23T09:20:19.975Z,10.50
2018-05-23T09:22:47.478Z,10.83
2018-05-23T09:25:14.923Z,12.53
2018-05-23T09:27:42.439Z,10.73
2018-05-23T09:30:09.967Z,9.67
2018-05-23T09:32:37.427Z,11.13
2018-05-23T09:35:04.878Z,10.23
2018-05-23T09:37:32.310Z,11.20
2018-05-23T09:39:59.816Z,19.00
2018-05-23T09:42:27.267Z,8.90
2018-05-23T09:44:54.703Z,15.13
2018-05-23T09:47:22.170Z,13.07
2018-05-23T09:49:49.623Z,12.80
2018-05-23T09:52:17.121Z,18.07
2018-05-23T09:54:44.563Z,10.67
2018-05-23T09:57:12.050Z,12.57
2018-05-23T09:59:39.617Z,15.93
2018-05-23T10:02:07.058Z,11.33
2018-05-23T10:04:34.607Z,8.13
2018-05-23T10:07:02.050Z,12.03
2018-05-23T10:09:29.559Z,8.10
2018-05-23T10:11:57.010Z,12.00
2018-05-23T10:14:24.456Z,12.30
2018-05-23T10:16:51.943Z,10.07
2018-05-23T10:19:19.478Z,9.73
2018-05-23T10:21:46.899Z,14.70
2018-05-23T10:24:14.350Z,12.50
2018-05-23T10:26:41.894Z,13.60
2018-05-23T10:29:09.334Z,9.40
2018-05-23T10:31:36.810Z,17.70
2018-05-23T10:34:04.259Z,10.57
2018-05-23T10:36:31.735Z,11.53
2018-05-23T10:38:59.261Z,11.60
2018-05-23T10:41:26.661Z,12.73
2018-05-23T10:43:54.147Z,12.37
2018-05-23T10:46:21.678Z,10.80
2018-05-23T10:48:49.138Z,14.00
2018-05-23T10:51:16.682Z,14.03
2018-05-23T10:53:44.143Z,11.30
2018-05-23T10:56:13.290Z,10.80
2018-05-23T10:58:40.754Z,17.47
2018-05-23T11:01:08.194Z,11.52
2018-05-23T11:03:35.758Z,13.20
2018-05-23T11:06:03.210Z,16.53
2018-05-23T11:08:30.679Z,13.43
2018-05-23T11:10:58.142Z,10.23
2018-05-23T11:13:25.582Z,11.03
2018-05-23T11:15:53.038Z,10.50
2018-05-23T11:18:20.526Z,12.67
2018-05-23T11:20:47.966Z,9.53
2018-05-23T11:23:15.420Z,11.23
2018-05-23T11:25:42.850Z,11.13
2018-05-23T11:28:11.055Z,8.20
2018-05-23T11:30:38.546Z,12.70
2018-05-23T11:33:06.006Z,8.93
2018-05-23T11:35:33.471Z,10.30
2018-05-23T11:38:00.933Z,8.73
2018-05-23T11:40:28.391Z,8.23
2018-05-23T11:42:55.827Z,12.30
2018-05-23T11:45:23.274Z,8.93
2018-05-23T11:47:50.710Z,9.37
2018-05-23T11:50:18.161Z,12.93
2018-05-23T11:52:45.602Z,8.90
2018-05-23T11:55:13.038Z,10.83
2018-05-23T11:57:40.476Z,17.50
2018-05-23T12:00:08.682Z,8.53
2018-05-23T12:02:36.162Z,11.50
2018-05-23T12:05:03.616Z,8.87
2018-05-23T12:07:31.082Z,8.30
2018-05-23T12:09:58.624Z,10.50
2018-05-23T12:12:26.047Z,7.17
2018-05-23T12:14:54.296Z,7.07
2018-05-23T12:17:21.751Z,6.80
2018-05-23T12:19:49.209Z,7.70
2018-05-23T12:22:16.674Z,7.10
2018-05-23T12:24:44.134Z,10.83
2018-05-23T12:27:11.570Z,9.53
2018-05-23T12:29:39.058Z,11.70
2018-05-23T12:32:06.498Z,12.73
2018-05-23T12:34:33.954Z,10.70
2018-05-23T12:37:01.388Z,7.90
2018-05-23T12:39:29.587Z,7.97
2018-05-23T12:41:57.078Z,8.50
2018-05-23T12:44:24.538Z,7.73
2018-05-23T12:46:51.997Z,8.03
2018-05-23T12:49:19.434Z,8.27
2018-05-23T12:51:46.938Z,7.47
2018-05-23T12:54:14.399Z,7.53
2018-05-23T12:56:42.034Z,15.70
2018-05-23T12:59:09.529Z,10.53
2018-05-23T13:01:37.000Z,9.17
2018-05-23T13:04:04.558Z,9.10
2018-05-23T13:06:31.993Z,9.03
2018-05-23T13:08:59.482Z,10.03
2018-05-23T13:11:26.950Z,22.23
2018-05-23T13:13:54.464Z,9.33
2018-05-23T13:16:21.903Z,13.87
2018-05-23T13:18:50.109Z,9.83
2018-05-23T13:21:17.610Z,7.77
2018-05-23T13:23:45.127Z,11.03
2018-05-23T13:26:12.562Z,11.67
2018-05-23T13:28:40.762Z,12.70
2018-05-23T13:31:08.254Z,10.07
2018-05-23T13:33:35.690Z,10.23
2018-05-23T13:36:03.148Z,16.00
2018-05-23T13:38:30.589Z,11.83
2018-05-23T13:40:58.802Z,11.23
2018-05-23T13:43:26.242Z,16.07
2018-05-23T13:45:53.694Z,11.20
2018-05-23T13:48:21.894Z,7.40
2018-05-23T13:50:49.338Z,7.10
2018-05-23T13:53:16.770Z,7.80
2018-05-23T13:55:44.222Z,12.77
2018-05-23T13:58:11.762Z,8.20
2018-05-23T14:00:39.226Z,7.27
2018-05-23T14:03:06.666Z,8.13
2018-05-23T14:05:34.114Z,6.33
2018-05-23T14:08:01.611Z,6.70
2018-05-23T14:10:29.069Z,8.83
2018-05-23T14:12:56.505Z,7.80
2018-05-23T14:15:23.990Z,12.27
2018-05-23T14:17:51.445Z,12.37
2018-05-23T14:20:18.874Z,6.90
2018-05-23T14:22:46.314Z,7.27
2018-05-23T14:25:14.546Z,9.50
2018-05-23T14:27:42.017Z,5.00
2018-05-23T14:30:09.508Z,6.90
2018-05-23T14:32:36.959Z,6.03
2018-05-23T14:35:04.389Z,7.57
2018-05-23T14:37:31.836Z,9.10
2018-05-23T14:39:59.273Z,7.80
2018-05-23T14:42:27.478Z,8.33
2018-05-23T14:44:54.914Z,8.43
2018-05-23T14:47:23.133Z,8.53
2018-05-23T14:49:50.607Z,7.77
2018-05-23T14:52:18.141Z,11.83
2018-05-23T14:54:45.562Z,8.80
2018-05-23T14:57:13.090Z,8.30
2018-05-23T14:59:40.562Z,7.50
2018-05-23T15:02:08.019Z,7.20
2018-05-23T15:04:35.482Z,7.80
2018-05-23T15:07:02.921Z,7.00
2018-05-23T15:09:30.397Z,9.07
2018-05-23T15:11:57.863Z,12.40
2018-05-23T15:14:25.357Z,8.97
2018-05-23T15:16:52.749Z,7.10
2018-05-23T15:19:20.244Z,8.50
2018-05-23T15:21:47.719Z,6.77
2018-05-23T15:24:15.151Z,11.83
2018-05-23T15:26:42.631Z,7.47
2018-05-23T15:29:10.070Z,8.73
2018-05-23T15:31:37.509Z,6.90
2018-05-23T15:34:05.022Z,9.03
2018-05-23T15:36:32.480Z,7.20
2018-05-23T15:38:59.934Z,7.97
2018-05-23T15:41:27.409Z,10.70
2018-05-23T15:43:54.826Z,8.33
2018-05-23T15:46:22.323Z,11.43
2018-05-23T15:48:49.786Z,43.33
2018-05-23T15:51:17.290Z,8.53
2018-05-23T15:53:44.665Z,7.37
2018-05-23T15:56:12.101Z,8.70
2018-05-23T15:58:39.630Z,8.73
2018-05-23T16:01:07.066Z,6.93
2018-05-23T16:03:34.510Z,10.30
2018-05-23T16:06:01.942Z,7.63
2018-05-23T16:08:29.474Z,9.70
2018-05-23T16:10:57.015Z,7.00
2018-05-23T16:13:24.349Z,9.73
2018-05-23T16:15:52.550Z,5.43
2018-05-23T16:18:19.994Z,8.67
2018-05-23T16:20:47.474Z,7.73
2018-05-23T16:23:14.906Z,6.30
2018-05-23T16:25:43.107Z,8.00
2018-05-23T16:28:10.562Z,6.00
2018-05-23T16:30:38.755Z,7.93
2018-05-23T16:33:06.234Z,8.60
2018-05-23T16:35:33.671Z,5.60
2018-05-23T16:38:01.113Z,7.70
2018-05-23T16:40:29.335Z,6.40
2018-05-23T16:42:56.821Z,6.93
2018-05-23T16:45:24.238Z,7.30
2018-05-23T16:47:51.678Z,9.20
2018-05-23T16:50:19.122Z,9.10
2018-05-23T16:52:47.331Z,7.87
2018-05-23T16:55:14.830Z,10.23
2018-05-23T16:57:42.283Z,23.10
2018-05-23T17:00:09.723Z,7.90
2018-05-23T17:02:37.206Z,5.90
2018-05-23T17:05:04.642Z,5.40
2018-05-23T17:07:32.125Z,6.37
2018-05-23T17:09:59.572Z,6.73
2018-05-23T17:12:27.067Z,15.47
2018-05-23T17:14:54.494Z,11.67
2018-05-23T17:17:21.943Z,8.57
2018-05-23T17:19:49.374Z,7.40
2018-05-23T17:22:17.614Z,8.90
2018-05-23T17:24:45.073Z,8.87
2018-05-23T17:27:12.513Z,6.40
2018-05-23T17:29:39.962Z,7.63
2018-05-23T17:32:07.393Z,7.47
2018-05-23T17:34:34.933Z,6.10
2018-05-23T17:37:02.384Z,5.83
2018-05-23T17:39:29.822Z,7.10
2018-05-23T17:41:57.258Z,10.00
2018-05-23T17:44:25.487Z,7.50
2018-05-23T17:46:52.920Z,12.93
2018-05-23T17:49:20.410Z,10.03
2018-05-23T17:51:47.855Z,6.33
2018-05-23T17:54:15.298Z,5.40
2018-05-23T17:56:42.730Z,7.17
2018-05-23T17:59:10.174Z,7.13
2018-05-23T18:01:37.611Z,5.40
2018-05-23T18:04:05.050Z,5.30
2018-05-23T18:06:32.581Z,5.20
2018-05-23T18:09:00.702Z,10.97
2018-05-23T18:11:28.292Z,6.20
2018-05-23T18:13:55.750Z,6.83
2018-05-23T18:16:23.199Z,5.43
2018-05-23T18:18:50.638Z,6.23
2018-05-23T18:21:18.122Z,4.93
2018-05-23T18:23:45.626Z,5.40
2018-05-23T18:26:13.034Z,6.13
2018-05-23T18:28:40.481Z,4.53
2018-05-23T18:31:07.921Z,6.90
2018-05-23T18:33:36.142Z,5.43
2018-05-23T18:36:03.621Z,5.77
2018-05-23T18:38:31.075Z,4.90
2018-05-23T18:40:58.513Z,4.90
2018-05-23T18:43:26.031Z,5.70
2018-05-23T18:45:53.441Z,7.60
2018-05-23T18:48:20.891Z,6.10
2018-05-23T18:50:48.314Z,6.10
2018-05-23T18:53:15.839Z,5.87
2018-05-23T18:55:43.302Z,5.00
2018-05-23T18:58:10.771Z,4.83
2018-05-23T19:00:38.223Z,5.97
2018-05-23T19:03:05.702Z,4.97
2018-05-23T19:05:33.328Z,6.13
2018-05-23T19:08:00.770Z,8.00
2018-05-23T19:10:28.990Z,9.33
2018-05-23T19:12:56.438Z,5.00
2018-05-23T19:15:23.891Z,6.10
2018-05-23T19:17:51.377Z,7.97
2018-05-23T19:20:18.819Z,5.47
2018-05-23T19:22:46.311Z,7.87
2018-05-23T19:25:13.745Z,6.57
2018-05-23T19:27:41.187Z,12.73
2018-05-23T19:30:08.630Z,6.00
2018-05-23T19:32:36.831Z,5.90
2018-05-23T19:35:04.274Z,6.93
2018-05-23T19:37:32.490Z,6.00
2018-05-23T19:39:59.974Z,5.37
2018-05-23T19:42:27.423Z,5.73
2018-05-23T19:44:54.885Z,5.60
2018-05-23T19:47:22.438Z,5.80
2018-05-23T19:49:49.890Z,7.20
2018-05-23T19:52:17.374Z,5.60
2018-05-23T19:54:44.826Z,7.00
2018-05-23T19:57:12.260Z,4.80
2018-05-23T19:59:39.758Z,5.47
2018-05-23T20:02:07.196Z,5.30
2018-05-23T20:04:34.665Z,6.20
2018-05-23T20:07:02.156Z,8.50
2018-05-23T20:09:29.597Z,6.77
2018-05-23T20:11:57.023Z,6.80
2018-05-23T20:14:24.485Z,7.30
2018-05-23T20:16:52.691Z,8.63
2018-05-23T20:19:20.178Z,6.83
2018-05-23T20:21:47.641Z,5.30
2018-05-23T20:24:15.190Z,5.20
2018-05-23T20:26:42.650Z,6.20
2018-05-23T20:29:10.918Z,5.33
2018-05-23T20:31:38.294Z,5.50
2018-05-23T20:34:05.884Z,4.53
2018-05-23T20:36:33.314Z,6.57
2018-05-23T20:39:00.857Z,7.30
2018-05-23T20:41:28.286Z,6.80
2018-05-23T20:43:56.486Z,5.73
2018-05-23T20:46:24.000Z,5.80
2018-05-23T20:48:51.430Z,5.47
2018-05-23T20:51:18.882Z,5.13
2018-05-23T20:53:46.449Z,6.17
2018-05-23T20:56:13.874Z,5.67
2018-05-23T20:58:42.122Z,6.57
2018-05-23T21:01:09.524Z,6.37
2018-05-23T21:03:37.766Z,5.10
2018-05-23T21:06:05.312Z,5.33
2018-05-23T21:08:32.742Z,7.00
2018-05-23T21:11:00.238Z,5.57
2018-05-23T21:13:27.687Z,4.77
2018-05-23T21:15:55.355Z,5.60
2018-05-23T21:18:22.774Z,4.90
2018-05-23T21:20:51.078Z,4.80
2018-05-23T21:23:18.566Z,6.10
2018-05-23T21:25:46.010Z,7.40
2018-05-23T21:28:13.446Z,8.93
2018-05-23T21:30:41.686Z,8.07
2018-05-23T21:33:09.127Z,4.63
2018-05-23T21:35:36.566Z,6.93
2018-05-23T21:38:03.997Z,5.10
2018-05-23T21:40:32.220Z,5.40
2018-05-23T21:42:59.647Z,5.80
2018-05-23T21:45:27.158Z,7.00
2018-05-23T21:47:54.629Z,6.43
2018-05-23T21:50:22.081Z,5.40
2018-05-23T21:52:49.533Z,5.73
2018-05-23T21:55:16.994Z,5.73
2018-05-23T21:57:44.414Z,9.23
2018-05-23T22:00:12.625Z,6.30
2018-05-23T22:02:40.059Z,7.40
2018-05-23T22:05:07.562Z,6.27
2018-05-23T22:07:35.098Z,5.00
2018-05-23T22:10:02.549Z,10.53
2018-05-23T22:12:29.981Z,6.80
2018-05-23T22:14:57.413Z,5.20
2018-05-23T22:17:24.862Z,4.90
2018-05-23T22:19:52.293Z,5.60
2018-05-23T22:22:19.754Z,5.23
2018-05-23T22:24:47.192Z,4.73
2018-05-23T22:27:15.406Z,5.87
2018-05-23T22:29:42.845Z,4.30
2018-05-23T22:32:10.363Z,4.40
2018-05-23T22:34:37.811Z,4.60
2018-05-23T22:37:05.274Z,4.83
2018-05-23T22:39:32.709Z,5.90
2018-05-23T22:42:00.277Z,5.50
2018-05-23T22:44:27.702Z,5.17
2018-05-23T22:46:55.930Z,4.73
2018-05-23T22:49:23.367Z,6.93
2018-05-23T22:51:50.863Z,6.87
2018-05-23T22:54:18.298Z,6.13
2018-05-23T22:56:45.789Z,10.33
2018-05-23T22:59:13.225Z,8.17
2018-05-23T23:01:40.714Z,5.73
2018-05-23T23:04:08.172Z,8.93
2018-05-23T23:06:35.610Z,6.20
2018-05-23T23:09:03.063Z,4.30
2018-05-23T23:11:30.508Z,7.10
2018-05-23T23:13:58.703Z,6.67
2018-05-23T23:16:26.218Z,5.17
2018-05-23T23:18:54.513Z,4.00
2018-05-23T23:21:21.926Z,4.87
2018-05-23T23:23:49.368Z,4.30
2018-05-23T23:26:16.858Z,5.03
2018-05-23T23:28:44.295Z,5.13
2018-05-23T23:31:11.754Z,9.90
2018-05-23T23:33:39.255Z,4.70
2018-05-23T23:36:06.805Z,4.57
2018-05-23T23:38:34.266Z,4.23
2018-05-23T23:41:01.730Z,4.83
2018-05-23T23:43:29.190Z,3.93
2018-05-23T23:45:56.651Z,3.90
2018-05-23T23:48:24.094Z,8.50
2018-05-23T23:50:51.593Z,4.70
2018-05-23T23:53:19.069Z,3.70
2018-05-23T23:55:46.502Z,4.90
2018-05-23T23:58:13.958Z,6.17
